Time;durP1;ratioP1;P1;durP2;ratioP2;P2;SDS_P1;SDS_P2;PMS_P1;PMS_P2;Temp;Humidity;BMP_temperature;BMP_pressure;BME280_temperature;BME280_humidity;BME280_pressure;Samples;Min_cycle;Max_cycle;Signal;HPM_P1;HPM_P2
2024/03/06 00:00:33;;;;;;;12.80;0.40;;;8.60;99.90;;;;;;4269121;27;20043;-56
2024/03/06 00:02:35;;;;;;;0.35;0.35;;;8.60;99.90;;;;;;4269026;27;20122;-57
2024/03/06 00:04:38;;;;;;;1.05;0.88;;;8.60;99.90;;;;;;4268904;27;20043;-57
2024/03/06 00:06:40;;;;;;;0.88;0.60;;;8.60;99.90;;;;;;4268814;27;20117;-57
2024/03/06 00:08:42;;;;;;;0.52;0.50;;;8.60;99.90;;;;;;4268906;27;20050;-57
2024/03/06 00:10:45;;;;;;;1.13;0.30;;;8.50;99.90;;;;;;4268612;27;20042;-57
2024/03/06 00:12:47;;;;;;;0.70;0.70;;;8.50;99.90;;;;;;4268580;27;20425;-58
2024/03/06 00:14:49;;;;;;;1.33;0.50;;;8.60;99.90;;;;;;4268722;27;20074;-57
2024/03/06 00:16:55;;;;;;;0.43;0.43;;;8.60;99.90;;;;;;4268672;27;20043;-58
2024/03/06 00:18:58;;;;;;;2.00;1.23;;;8.50;99.90;;;;;;4250468;27;20046;-57
2024/03/06 00:21:00;;;;;;;0.85;0.30;;;8.60;99.90;;;;;;4268551;27;20053;-57
2024/03/06 00:23:03;;;;;;;1.08;0.50;;;8.50;99.90;;;;;;4268410;27;20039;-57
2024/03/06 00:25:05;;;;;;;0.75;0.55;;;8.60;99.90;;;;;;4268127;27;20043;-57
2024/03/06 00:27:07;;;;;;;2.78;1.63;;;8.60;99.90;;;;;;4250244;27;20074;-58
2024/03/06 00:29:10;;;;;;;0.73;0.40;;;8.60;99.90;;;;;;4268500;27;20047;-56
2024/03/06 00:31:12;;;;;;;0.50;0.50;;;8.60;99.90;;;;;;4268439;27;20074;-57
2024/03/06 00:33:16;;;;;;;0.45;0.40;;;8.60;99.90;;;;;;4268611;27;20042;-57
2024/03/06 00:35:19;;;;;;;0.40;0.40;;;8.50;99.90;;;;;;4268689;27;20058;-57
2024/03/06 00:37:21;;;;;;;0.68;0.68;;;8.40;99.90;;;;;;4268750;27;20121;-57
2024/03/06 00:39:24;;;;;;;0.30;0.30;;;8.50;99.90;;;;;;4270123;27;20513;-58
2024/03/06 00:41:26;;;;;;;2.33;1.65;;;8.40;99.90;;;;;;4269825;27;20050;-58
2024/03/06 00:43:28;;;;;;;0.70;0.30;;;8.30;99.90;;;;;;4270763;27;20450;-58
2024/03/06 00:45:31;;;;;;;0.65;0.65;;;8.30;99.90;;;;;;4270129;27;20042;-57
2024/03/06 00:47:34;;;;;;;0.55;0.32;;;8.40;99.90;;;;;;4269951;27;20084;-63
2024/03/06 00:49:38;;;;;;;0.65;0.55;;;8.40;99.90;;;;;;4269307;27;20046;-58
2024/03/06 00:51:41;;;;;;;1.08;0.30;;;8.40;99.90;;;;;;4268451;27;20077;-58
2024/03/06 00:53:50;;;;;;;2.15;1.25;;;8.30;99.90;;;;;;4268259;27;20440;-57
2024/03/06 00:55:52;;;;;;;0.65;0.30;;;8.30;99.90;;;;;;4268135;27;20074;-58
2024/03/06 00:57:54;;;;;;;0.60;0.50;;;8.30;99.90;;;;;;4268415;27;20055;-57
2024/03/06 00:59:59;;;;;;;1.60;0.50;;;8.40;99.90;;;;;;4268221;27;20043;-57
2024/03/06 01:02:01;;;;;;;1.85;0.47;;;8.40;99.90;;;;;;4268047;27;20043;-57
2024/03/06 01:04:03;;;;;;;1.10;0.45;;;8.40;99.90;;;;;;4267719;27;20054;-57
2024/03/06 01:06:06;;;;;;;0.55;0.50;;;8.40;99.90;;;;;;4267854;27;20057;-57
2024/03/06 01:08:08;;;;;;;0.55;0.50;;;8.40;99.90;;;;;;4267552;27;20045;-56
2024/03/06 01:10:11;;;;;;;0.65;0.30;;;8.50;99.90;;;;;;4267921;27;20073;-58
2024/03/06 01:12:13;;;;;;;0.40;0.40;;;8.50;99.90;;;;;;4267817;27;20053;-57
2024/03/06 01:14:16;;;;;;;1.40;0.95;;;8.50;99.90;;;;;;4267695;27;20070;-56
2024/03/06 01:16:18;;;;;;;1.00;0.47;;;8.60;99.90;;;;;;4268721;27;20523;-57
2024/03/06 01:18:21;;;;;;;1.52;1.02;;;8.60;99.90;;;;;;4268673;27;20049;-59
2024/03/06 01:20:24;;;;;;;0.32;0.25;;;8.50;99.90;;;;;;4268298;27;20058;-57
2024/03/06 01:22:29;;;;;;;2.13;0.82;;;8.60;99.90;;;;;;4267732;27;20051;-57
2024/03/06 01:24:31;;;;;;;1.10;0.52;;;8.60;99.90;;;;;;4268292;27;20054;-58
2024/03/06 01:26:33;;;;;;;1.38;0.82;;;8.60;99.90;;;;;;4268438;27;20047;-58
2024/03/06 01:28:36;;;;;;;1.17;1.00;;;8.60;99.90;;;;;;4268176;27;20042;-57
2024/03/06 01:30:38;;;;;;;0.82;0.40;;;8.60;99.90;;;;;;4268112;27;20477;-60
2024/03/06 01:32:40;;;;;;;0.65;0.63;;;8.60;99.90;;;;;;4268066;27;20047;-57
2024/03/06 01:34:43;;;;;;;0.95;0.65;;;8.60;99.90;;;;;;4249714;27;20433;-58
2024/03/06 01:36:45;;;;;;;0.32;0.32;;;8.60;99.90;;;;;;4267011;27;20049;-58
2024/03/06 01:38:49;;;;;;;1.52;0.68;;;8.70;99.90;;;;;;4267716;27;20058;-60
2024/03/06 01:40:51;;;;;;;0.93;0.63;;;8.60;99.90;;;;;;4267543;27;20047;-57
2024/03/06 01:42:53;;;;;;;1.42;0.88;;;8.60;99.90;;;;;;4267475;27;20472;-56
2024/03/06 01:44:55;;;;;;;1.15;0.85;;;8.70;99.90;;;;;;4267446;27;20485;-56
2024/03/06 01:46:57;;;;;;;0.75;0.50;;;8.60;99.90;;;;;;4249099;27;20050;-58
2024/03/06 01:48:59;;;;;;;0.60;0.60;;;8.60;99.90;;;;;;4267622;27;20047;-57
2024/03/06 01:51:06;;;;;;;0.85;0.75;;;8.60;99.90;;;;;;4267949;27;20485;-59
2024/03/06 01:53:09;;;;;;;0.95;0.88;;;8.60;99.90;;;;;;4269644;27;20039;-57
2024/03/06 01:55:13;;;;;;;0.68;0.57;;;8.60;99.90;;;;;;4268309;27;20039;-58
2024/03/06 01:57:18;;;;;;;4.03;0.65;;;8.60;99.90;;;;;;4267443;27;20130;-65
2024/03/06 01:59:25;;;;;;;1.10;1.00;;;8.60;99.90;;;;;;4269695;27;20053;-57
2024/03/06 02:01:38;;;;;;;0.98;0.95;;;8.60;99.90;;;;;;4268814;27;20548;-57
2024/03/06 02:03:40;;;;;;;1.13;0.80;;;8.50;99.90;;;;;;4267997;27;20446;-68
2024/03/06 02:05:43;;;;;;;1.95;0.63;;;8.50;99.90;;;;;;4269489;27;20534;-59
2024/03/06 02:07:45;;;;;;;1.42;0.80;;;8.50;99.90;;;;;;4269945;27;20111;-58
2024/03/06 02:09:48;;;;;;;0.70;0.57;;;8.50;99.90;;;;;;4268614;27;20402;-57
2024/03/06 02:11:52;;;;;;;1.45;0.70;;;8.50;99.90;;;;;;4267677;27;20092;-57
2024/03/06 02:13:58;;;;;;;1.48;0.85;;;8.50;99.90;;;;;;4267327;27;20070;-57
2024/03/06 02:16:00;;;;;;;1.45;1.15;;;8.60;99.90;;;;;;4267117;27;20065;-58
2024/03/06 02:18:05;;;;;;;1.67;1.10;;;8.50;99.90;;;;;;4266528;27;20057;-57
2024/03/06 02:20:12;;;;;;;2.00;1.15;;;8.60;99.90;;;;;;4266522;27;20470;-57
2024/03/06 02:22:15;;;;;;;1.25;0.93;;;8.60;99.90;;;;;;4266853;27;20047;-57
2024/03/06 02:24:17;;;;;;;1.00;0.70;;;8.60;99.90;;;;;;4266403;27;20043;-57
2024/03/06 02:26:20;;;;;;;1.98;1.25;;;8.50;99.90;;;;;;4267303;27;20053;-57
2024/03/06 02:28:22;;;;;;;1.40;0.70;;;8.50;99.90;;;;;;4266799;27;20477;-58
2024/03/06 02:30:25;;;;;;;1.73;0.90;;;8.40;99.90;;;;;;4267576;27;20073;-59
2024/03/06 02:32:27;;;;;;;2.38;1.23;;;8.50;99.90;;;;;;4268713;27;20039;-57
2024/03/06 02:34:32;;;;;;;1.88;0.70;;;8.40;99.90;;;;;;4266796;27;20073;-57
2024/03/06 02:36:34;;;;;;;;;;;8.50;99.90;;;;;;4267030;27;20074;-57
2024/03/06 02:38:37;;;;;;;1.20;0.73;;;8.40;99.90;;;;;;4266324;27;19962;-58
2024/03/06 02:40:42;;;;;;;1.08;0.60;;;8.50;99.90;;;;;;4248048;27;20066;-57
2024/03/06 02:42:44;;;;;;;;;;;8.50;99.90;;;;;;4248456;27;20056;-57
2024/03/06 02:44:46;;;;;;;2.38;1.75;;;8.50;99.90;;;;;;4266231;27;20358;-57
2024/03/06 02:46:49;;;;;;;1.73;1.30;;;8.40;99.90;;;;;;4266279;27;20054;-57
2024/03/06 02:48:51;;;;;;;1.48;1.00;;;8.30;99.90;;;;;;4265952;27;20043;-58
2024/03/06 02:50:53;;;;;;;1.13;0.80;;;8.40;99.90;;;;;;4266413;27;20042;-58
2024/03/06 02:52:56;;;;;;;2.50;1.08;;;8.40;99.90;;;;;;4266196;27;20051;-58
2024/03/06 02:55:00;;;;;;;0.85;0.60;;;8.40;99.90;;;;;;4266077;27;20039;-57
2024/03/06 02:57:02;;;;;;;1.88;1.17;;;8.40;99.90;;;;;;4266929;27;20054;-57
2024/03/06 02:59:04;;;;;;;1.58;0.70;;;8.40;99.90;;;;;;4266738;27;20051;-62
2024/03/06 03:01:08;;;;;;;3.25;1.50;;;8.50;99.90;;;;;;4266603;27;20043;-59
2024/03/06 03:03:11;;;;;;;0.45;0.45;;;8.40;99.90;;;;;;4266230;27;20043;-58
2024/03/06 03:05:14;;;;;;;1.13;1.00;;;8.40;99.90;;;;;;4248205;27;20047;-58
2024/03/06 03:07:16;;;;;;;3.15;1.00;;;8.30;99.90;;;;;;4267156;27;20528;-57
2024/03/06 03:09:18;;;;;;;1.70;1.08;;;8.40;99.90;;;;;;4267011;27;20047;-62
2024/03/06 03:11:21;;;;;;;1.05;0.80;;;8.50;99.90;;;;;;4266833;27;20049;-57
2024/03/06 03:13:23;;;;;;;3.30;1.00;;;8.50;99.90;;;;;;4266596;27;20047;-58
2024/03/06 03:15:26;;;;;;;1.75;0.90;;;8.50;99.90;;;;;;4248190;27;20104;-58
2024/03/06 03:17:29;;;;;;;3.50;1.48;;;8.40;99.90;;;;;;4247178;27;20069;-57
2024/03/06 03:19:31;;;;;;;2.33;1.35;;;8.40;99.90;;;;;;4266141;27;20059;-57
2024/03/06 03:21:33;;;;;;;2.78;1.20;;;8.40;99.90;;;;;;4266235;27;20537;-57
2024/03/06 03:23:36;;;;;;;2.20;1.13;;;8.30;99.90;;;;;;4266165;27;20043;-58
2024/03/06 03:25:38;;;;;;;2.97;1.58;;;8.40;99.90;;;;;;4265857;27;20039;-57
2024/03/06 03:27:43;;;;;;;5.75;2.55;;;8.40;99.90;;;;;;4265761;27;20121;-57
2024/03/06 03:29:45;;;;;;;2.25;1.67;;;8.40;99.90;;;;;;4264800;27;20043;-58
2024/03/06 03:31:47;;;;;;;2.13;1.92;;;8.50;99.90;;;;;;4265684;27;20125;-58
2024/03/06 03:33:50;;;;;;;3.10;1.70;;;8.50;99.90;;;;;;4265745;27;20062;-57
2024/03/06 03:35:52;;;;;;;3.33;2.55;;;8.40;99.90;;;;;;4248737;28;20039;-64
2024/03/06 03:37:55;;;;;;;2.22;1.90;;;8.40;99.90;;;;;;4267070;27;20042;-57
2024/03/06 03:39:57;;;;;;;4.32;3.20;;;8.30;99.90;;;;;;4267220;27;20067;-67
2024/03/06 03:42:01;;;;;;;4.57;2.65;;;8.30;99.90;;;;;;4267596;27;20046;-58
2024/03/06 03:44:04;;;;;;;3.30;1.98;;;8.30;99.90;;;;;;4266729;27;20046;-57
2024/03/06 03:46:06;;;;;;;5.15;2.03;;;8.40;99.90;;;;;;4266220;27;20053;-57
2024/03/06 03:48:08;;;;;;;3.53;2.72;;;8.40;99.90;;;;;;4265215;27;20546;-57
2024/03/06 03:50:10;;;;;;;5.80;1.98;;;8.40;99.90;;;;;;4265491;27;20063;-57
2024/03/06 03:52:13;;;;;;;3.60;1.92;;;8.40;99.90;;;;;;4265582;27;20043;-57
2024/03/06 03:54:15;;;;;;;3.83;2.17;;;8.30;99.90;;;;;;4265509;27;20446;-57
2024/03/06 03:56:17;;;;;;;6.80;3.25;;;8.40;99.90;;;;;;4265327;27;20078;-57
2024/03/06 03:58:19;;;;;;;4.38;3.00;;;8.40;99.90;;;;;;4265532;27;20039;-57
2024/03/06 04:00:23;;;;;;;4.00;1.88;;;8.40;99.90;;;;;;4265705;27;20469;-57
2024/03/06 04:02:25;;;;;;;4.85;2.92;;;8.40;99.90;;;;;;4265074;27;20049;-58
2024/03/06 04:04:27;;;;;;;4.13;2.22;;;8.40;99.90;;;;;;4265316;27;20046;-58
2024/03/06 04:06:29;;;;;;;3.30;2.97;;;8.30;99.90;;;;;;4265477;27;20042;-57
2024/03/06 04:08:31;;;;;;;3.85;3.33;;;8.10;99.90;;;;;;4265335;27;20050;-58
2024/03/06 04:10:33;;;;;;;3.78;2.30;;;8.20;99.90;;;;;;4265642;27;20071;-57
2024/03/06 04:12:35;;;;;;;6.75;3.00;;;8.20;99.90;;;;;;4265548;27;20062;-58
2024/03/06 04:14:37;;;;;;;7.25;2.28;;;8.20;99.90;;;;;;4265329;27;20473;-57
2024/03/06 04:16:41;;;;;;;4.88;3.38;;;8.20;99.90;;;;;;4265157;27;20542;-57
2024/03/06 04:18:45;;;;;;;3.35;1.65;;;8.20;99.90;;;;;;4268454;27;20066;-62
2024/03/06 04:20:47;;;;;;;4.03;3.30;;;8.30;99.90;;;;;;4266079;27;20122;-56
2024/03/06 04:22:50;;;;;;;3.08;2.75;;;8.20;99.90;;;;;;4265512;27;20122;-62
2024/03/06 04:24:53;;;;;;;5.07;2.08;;;8.20;99.90;;;;;;4265065;27;20046;-57
2024/03/06 04:26:55;;;;;;;2.90;1.98;;;8.10;99.90;;;;;;4265438;27;20050;-63
2024/03/06 04:28:57;;;;;;;3.33;2.38;;;8.10;99.90;;;;;;4265798;27;20422;-58
2024/03/06 04:31:00;;;;;;;4.95;3.15;;;8.10;99.90;;;;;;4265267;27;20527;-57
2024/03/06 04:33:04;;;;;;;3.45;2.70;;;8.10;99.90;;;;;;4264366;27;20125;-57
2024/03/06 04:35:09;;;;;;;2.55;1.58;;;8.20;99.90;;;;;;4265691;27;20455;-57
2024/03/06 04:37:11;;;;;;;2.17;1.90;;;8.20;99.90;;;;;;4265605;27;20460;-57
2024/03/06 04:39:14;;;;;;;3.38;1.80;;;8.10;99.90;;;;;;4247978;28;20123;-57
2024/03/06 04:41:18;;;;;;;3.17;1.42;;;8.10;99.90;;;;;;4267054;27;20048;-61
2024/03/06 04:43:21;;;;;;;7.25;2.65;;;8.20;99.90;;;;;;4269553;27;20486;-57
2024/03/06 04:45:23;;;;;;;2.42;2.20;;;8.20;99.90;;;;;;4269037;27;20133;-57
2024/03/06 04:47:25;;;;;;;5.43;3.28;;;8.10;99.90;;;;;;4268904;27;20049;-57
2024/03/06 04:49:34;;;;;;;5.68;2.70;;;8.00;99.90;;;;;;4269222;27;20497;-57
2024/03/06 04:51:36;;;;;;;2.17;1.55;;;7.90;99.90;;;;;;4268456;27;20069;-57
2024/03/06 04:53:38;;;;;;;3.22;1.73;;;7.90;99.90;;;;;;4268396;27;20053;-57
2024/03/06 04:55:41;;;;;;;2.05;1.23;;;7.90;99.90;;;;;;4268180;27;20562;-57
2024/03/06 04:57:45;;;;;;;12.50;1.95;;;7.90;99.90;;;;;;4268918;27;20471;-57
2024/03/06 04:59:47;;;;;;;2.40;1.73;;;8.00;99.90;;;;;;4268889;27;20047;-57
2024/03/06 05:01:49;;;;;;;2.97;2.25;;;7.90;99.90;;;;;;4268080;27;20066;-58
2024/03/06 05:03:51;;;;;;;3.10;1.63;;;8.00;99.90;;;;;;4267905;27;20047;-57
2024/03/06 05:06:12;;;;;;;6.03;2.08;;;8.00;99.90;;;;;;4268158;27;20126;-57
2024/03/06 05:08:32;;;;;;;1.35;1.10;;;8.00;99.90;;;;;;4252211;27;20104;-57
2024/03/06 05:10:52;;;;;;;2.22;1.83;;;8.10;99.90;;;;;;4252391;27;20524;-56
2024/03/06 05:13:11;;;;;;;5.80;2.75;;;8.10;99.90;;;;;;4267888;27;20047;-57
2024/03/06 05:15:31;;;;;;;2.50;1.70;;;8.00;99.90;;;;;;4267978;27;20562;-57
2024/03/06 05:17:50;;;;;;;3.95;2.35;;;7.90;99.90;;;;;;4267639;27;20049;-57
2024/03/06 05:20:10;;;;;;;2.05;1.48;;;7.90;99.90;;;;;;4267657;27;20054;-57
2024/03/06 05:22:31;;;;;;;3.33;1.98;;;7.90;99.90;;;;;;4267777;27;20047;-57
2024/03/06 05:24:51;;;;;;;5.25;2.15;;;8.00;99.90;;;;;;4267564;27;20065;-57
2024/03/06 05:27:15;;;;;;;3.50;2.03;;;8.00;99.90;;;;;;4267647;27;20038;-57
2024/03/06 05:29:36;;;;;;;4.20;2.33;;;8.00;99.90;;;;;;4267575;27;20042;-61
2024/03/06 05:31:55;;;;;;;4.55;2.95;;;8.10;99.90;;;;;;4267967;27;20393;-57
2024/03/06 05:34:15;;;;;;;3.15;1.90;;;8.10;99.90;;;;;;4267639;27;20046;-57
2024/03/06 05:36:34;;;;;;;3.05;1.88;;;8.10;99.90;;;;;;4267725;27;20042;-57
2024/03/06 05:38:55;;;;;;;1.88;1.60;;;8.10;99.90;;;;;;4267275;27;20115;-58
2024/03/06 05:41:15;;;;;;;8.13;4.60;;;8.10;99.90;;;;;;4267682;27;20401;-57
2024/03/06 05:43:34;;;;;;;5.85;1.92;;;8.10;99.90;;;;;;4267307;27;20046;-57
2024/03/06 05:45:54;;;;;;;3.08;2.15;;;8.10;99.90;;;;;;4251763;27;20495;-57
2024/03/06 05:48:14;;;;;;;2.83;1.65;;;8.10;99.90;;;;;;4269861;27;20370;-57
2024/03/06 05:50:33;;;;;;;4.60;2.58;;;8.10;99.90;;;;;;4269654;27;20042;-58
2024/03/06 05:52:53;;;;;;;2.90;1.55;;;8.10;99.90;;;;;;4269193;27;20065;-57
2024/03/06 05:55:14;;;;;;;4.90;2.35;;;8.00;99.90;;;;;;4270017;27;20042;-58
2024/03/06 05:57:34;;;;;;;3.78;1.83;;;8.00;99.90;;;;;;4269482;27;20442;-57
2024/03/06 05:59:54;;;;;;;3.78;2.90;;;8.10;99.90;;;;;;4267650;27;20045;-57
2024/03/06 06:01:56;;;;;;;5.07;2.60;;;8.10;99.90;;;;;;4248961;27;20054;-57
2024/03/06 06:04:00;;;;;;;4.32;2.38;;;8.10;99.90;;;;;;4267191;27;20050;-57
2024/03/06 06:06:05;;;;;;;6.13;1.80;;;8.10;99.90;;;;;;4269099;27;20046;-58
2024/03/06 06:08:07;;;;;;;2.90;1.77;;;8.10;99.90;;;;;;4269213;27;20498;-58
2024/03/06 06:10:09;;;;;;;3.17;2.05;;;8.10;99.90;;;;;;4267233;27;20054;-58
2024/03/06 06:12:13;;;;;;;3.08;1.65;;;8.20;99.90;;;;;;4266875;27;20404;-57
2024/03/06 06:14:15;;;;;;;2.17;1.27;;;8.20;99.90;;;;;;4231782;28;20134;-57
2024/03/06 06:16:17;;;;;;;5.22;2.00;;;8.20;99.90;;;;;;4267393;27;20467;-57
2024/03/06 06:18:19;;;;;;;2.53;1.70;;;8.20;99.90;;;;;;4267669;27;20049;-57
2024/03/06 06:20:22;;;;;;;3.30;1.65;;;8.10;99.90;;;;;;4267337;27;20070;-57
2024/03/06 06:22:24;;;;;;;2.20;1.25;;;8.20;99.90;;;;;;4249812;27;20047;-58
2024/03/06 06:24:26;;;;;;;3.20;1.40;;;8.20;99.90;;;;;;4267747;27;20125;-58
2024/03/06 06:26:28;;;;;;;1.23;0.65;;;8.10;99.90;;;;;;4267198;27;20446;-59
2024/03/06 06:28:32;;;;;;;1.63;0.90;;;8.10;99.90;;;;;;4266908;27;20107;-57
2024/03/06 06:30:34;;;;;;;1.77;1.13;;;8.20;99.90;;;;;;4266702;27;20047;-57
2024/03/06 06:32:36;;;;;;;2.72;1.63;;;8.20;99.90;;;;;;4266601;27;20051;-57
2024/03/06 06:34:38;;;;;;;2.20;1.80;;;8.30;99.90;;;;;;4267094;27;20082;-57
2024/03/06 06:36:45;;;;;;;2.25;1.17;;;8.20;99.90;;;;;;4266768;27;20055;-56
2024/03/06 06:38:47;;;;;;;1.88;1.10;;;8.30;99.90;;;;;;4266799;27;20130;-57
2024/03/06 06:40:50;;;;;;;3.83;1.52;;;8.30;99.90;;;;;;4266352;27;20409;-57
2024/03/06 06:42:52;;;;;;;1.15;0.93;;;8.20;99.90;;;;;;4266380;27;20067;-57
2024/03/06 06:44:56;;;;;;;4.20;2.63;;;8.20;99.90;;;;;;4266334;27;20054;-57
2024/03/06 06:46:58;;;;;;;3.90;1.83;;;8.20;99.90;;;;;;4248213;27;20054;-57
2024/03/06 06:49:00;;;;;;;1.60;1.02;;;8.20;99.90;;;;;;4266364;27;20057;-58
2024/03/06 06:51:02;;;;;;;3.30;1.30;;;8.20;99.90;;;;;;4248277;27;20039;-57
2024/03/06 06:53:05;;;;;;;3.22;1.70;;;8.10;99.90;;;;;;4266535;27;20046;-57
2024/03/06 06:55:11;;;;;;;3.05;2.17;;;8.10;99.90;;;;;;4266073;27;20099;-57
2024/03/06 06:57:13;;;;;;;11.07;3.22;;;8.10;99.90;;;;;;4266057;27;20107;-57
2024/03/06 06:59:15;;;;;;;3.45;1.58;;;8.10;99.90;;;;;;4248056;27;20558;-57
2024/03/06 07:01:20;;;;;;;7.00;2.90;;;8.00;99.90;;;;;;4266365;27;20133;-57
2024/03/06 07:03:23;;;;;;;2.33;1.40;;;8.00;99.90;;;;;;4266064;27;20050;-57
2024/03/06 07:05:26;;;;;;;2.08;1.70;;;8.10;99.90;;;;;;4266088;27;20043;-58
2024/03/06 07:07:28;;;;;;;4.88;1.85;;;8.00;99.90;;;;;;4266277;27;20129;-57
2024/03/06 07:09:30;;;;;;;4.95;2.40;;;8.00;99.90;;;;;;4265748;27;20070;-57
2024/03/06 07:11:32;;;;;;;3.67;1.30;;;8.00;99.90;;;;;;4266198;27;20409;-58
2024/03/06 07:13:34;;;;;;;4.13;1.73;;;7.90;99.90;;;;;;4247724;27;20050;-58
2024/03/06 07:15:37;;;;;;;4.18;1.92;;;7.90;99.90;;;;;;4266077;27;20522;-57
2024/03/06 07:17:40;;;;;;;3.80;2.65;;;8.00;99.90;;;;;;4265873;27;20162;-57
2024/03/06 07:19:43;;;;;;;3.60;2.05;;;8.00;99.90;;;;;;4265824;27;20065;-57
2024/03/06 07:21:45;;;;;;;10.07;2.10;;;7.90;99.90;;;;;;4265968;27;20050;-57
2024/03/06 07:23:47;;;;;;;2.47;1.80;;;8.00;99.90;;;;;;4266394;27;20039;-57
2024/03/06 07:25:50;;;;;;;3.28;1.92;;;8.00;99.90;;;;;;4266584;27;20043;-58
2024/03/06 07:27:53;;;;;;;3.92;1.52;;;8.00;99.90;;;;;;4266045;27;20050;-58
2024/03/06 07:29:55;;;;;;;3.38;2.35;;;8.10;99.90;;;;;;4247751;27;20047;-57
2024/03/06 07:31:57;;;;;;;1.55;1.15;;;8.10;99.90;;;;;;4266045;27;20046;-56
2024/03/06 07:34:01;;;;;;;4.00;2.17;;;8.10;99.90;;;;;;4265732;27;20062;-57
2024/03/06 07:36:04;;;;;;;4.22;1.77;;;8.10;99.90;;;;;;4265691;27;20409;-57
2024/03/06 07:38:06;;;;;;;2.13;1.45;;;8.10;99.90;;;;;;4265520;27;20065;-57
2024/03/06 07:40:09;;;;;;;2.63;1.00;;;8.10;99.90;;;;;;4265432;27;20138;-57
2024/03/06 07:42:12;;;;;;;4.07;0.90;;;8.10;99.90;;;;;;4265941;27;20638;-57
2024/03/06 07:44:14;;;;;;;2.05;1.52;;;8.20;99.90;;;;;;4265803;27;20438;-57
2024/03/06 07:46:16;;;;;;;2.38;0.80;;;8.30;99.90;;;;;;4265618;27;20047;-57
2024/03/06 07:48:20;;;;;;;1.00;0.73;;;8.10;99.90;;;;;;4266921;27;20047;-58
2024/03/06 07:50:23;;;;;;;5.53;1.42;;;8.10;99.90;;;;;;4267467;27;20043;-58
2024/03/06 07:52:29;;;;;;;2.03;1.30;;;8.10;99.90;;;;;;4268088;27;20049;-62
2024/03/06 07:54:33;;;;;;;2.30;1.52;;;8.20;99.90;;;;;;4267185;27;20046;-58
2024/03/06 07:56:35;;;;;;;5.25;1.98;;;8.20;99.90;;;;;;4268037;27;20050;-57
2024/03/06 07:58:37;;;;;;;5.75;2.38;;;8.30;99.90;;;;;;4266948;27;20047;-58
2024/03/06 08:00:40;;;;;;;4.55;1.67;;;8.20;99.90;;;;;;4266402;27;20082;-58
2024/03/06 08:02:42;;;;;;;4.75;2.00;;;8.30;99.90;;;;;;4266246;27;20071;-61
2024/03/06 08:04:47;;;;;;;2.33;1.25;;;8.40;99.90;;;;;;4265607;27;20043;-57
2024/03/06 08:06:50;;;;;;;1.70;1.08;;;8.40;99.90;;;;;;4247689;27;20130;-57
2024/03/06 08:08:53;;;;;;;1.42;1.20;;;8.30;99.90;;;;;;4265673;27;20039;-58
2024/03/06 08:10:55;;;;;;;2.42;1.42;;;8.40;99.90;;;;;;4265689;27;20043;-66
2024/03/06 08:12:57;;;;;;;1.63;1.25;;;8.50;99.90;;;;;;4265595;27;20047;-57
2024/03/06 08:14:59;;;;;;;4.57;2.00;;;8.50;99.90;;;;;;4265492;27;20461;-57
2024/03/06 08:17:02;;;;;;;7.18;2.08;;;8.40;99.90;;;;;;4267862;27;20046;-57
2024/03/06 08:19:05;;;;;;;3.70;0.90;;;8.40;99.90;;;;;;4268848;27;20070;-57
2024/03/06 08:21:07;;;;;;;1.65;1.42;;;8.40;99.90;;;;;;4268921;27;20041;-57
2024/03/06 08:23:10;;;;;;;1.40;0.95;;;8.40;99.90;;;;;;4268725;27;20046;-58
2024/03/06 08:25:13;;;;;;;2.90;1.52;;;8.50;99.90;;;;;;4269012;27;20046;-57
2024/03/06 08:27:15;;;;;;;2.20;1.42;;;8.50;99.90;;;;;;4268844;27;20045;-59
2024/03/06 08:29:19;;;;;;;2.45;1.02;;;8.60;99.90;;;;;;4268840;27;20103;-57
2024/03/06 08:31:21;;;;;;;1.77;1.20;;;8.60;99.90;;;;;;4250659;27;20058;-57
2024/03/06 08:33:24;;;;;;;2.67;1.35;;;8.60;99.90;;;;;;4268202;27;20130;-57
2024/03/06 08:35:27;;;;;;;1.80;1.00;;;8.60;99.90;;;;;;4268742;27;20110;-57
2024/03/06 08:37:33;;;;;;;3.63;1.75;;;8.60;99.90;;;;;;4268295;27;20039;-57
2024/03/06 08:39:36;;;;;;;4.15;1.75;;;8.60;99.90;;;;;;4268738;27;20039;-57
2024/03/06 08:41:39;;;;;;;2.05;1.38;;;8.70;99.90;;;;;;4250497;27;20043;-58
2024/03/06 08:43:42;;;;;;;1.88;1.13;;;8.60;99.90;;;;;;4268792;27;20047;-57
2024/03/06 08:45:44;;;;;;;2.25;1.30;;;8.60;99.90;;;;;;4268404;27;20107;-57
2024/03/06 08:47:48;;;;;;;3.17;2.15;;;8.70;99.90;;;;;;4268325;27;20095;-58
2024/03/06 08:49:50;;;;;;;2.83;1.00;;;8.60;99.90;;;;;;4268388;27;20066;-58
2024/03/06 08:51:52;;;;;;;3.10;1.60;;;8.60;99.90;;;;;;4267764;27;20081;-57
2024/03/06 08:53:54;;;;;;;2.03;1.30;;;8.60;99.90;;;;;;4268298;27;20073;-58
2024/03/06 08:55:57;;;;;;;1.85;1.00;;;8.70;99.90;;;;;;4268183;27;20042;-58
2024/03/06 08:58:01;;;;;;;2.70;2.13;;;8.70;99.90;;;;;;4268215;27;20047;-57
2024/03/06 09:00:08;;;;;;;2.55;1.85;;;8.80;99.90;;;;;;4268146;27;20075;-56
2024/03/06 09:02:14;;;;;;;2.90;1.27;;;8.70;99.90;;;;;;4267953;27;20081;-57
2024/03/06 09:04:16;;;;;;;1.85;1.52;;;8.80;99.90;;;;;;4268159;27;20400;-57
2024/03/06 09:06:18;;;;;;;3.28;1.98;;;8.90;99.90;;;;;;4267653;27;20053;-57
2024/03/06 09:08:20;;;;;;;1.38;0.90;;;8.90;99.90;;;;;;4262548;27;20043;-56
2024/03/06 09:10:23;;;;;;;1.77;0.88;;;8.90;99.90;;;;;;4267821;27;20121;-58
2024/03/06 09:12:26;;;;;;;1.63;1.00;;;9.20;99.90;;;;;;4264671;27;20125;-57
2024/03/06 09:14:28;;;;;;;3.13;1.02;;;9.20;99.90;;;;;;4266873;27;20070;-58
2024/03/06 09:16:31;;;;;;;0.95;0.90;;;9.20;99.90;;;;;;4267645;27;20062;-58
2024/03/06 09:18:33;;;;;;;2.25;1.63;;;9.30;99.90;;;;;;4267804;27;20450;-57
2024/03/06 09:20:35;;;;;;;1.73;1.08;;;9.20;99.90;;;;;;4266974;27;20051;-57
2024/03/06 09:22:38;;;;;;;1.13;0.90;;;9.50;99.90;;;;;;4259184;27;20091;-57
2024/03/06 09:24:40;;;;;;;6.15;2.25;;;9.80;99.90;;;;;;4263806;27;20038;-63
2024/03/06 09:26:43;;;;;;;1.50;1.10;;;9.70;99.90;;;;;;4260837;27;20043;-57
2024/03/06 09:28:46;;;;;;;2.03;1.10;;;9.60;99.90;;;;;;4260884;27;20043;-67
2024/03/06 09:30:49;;;;;;;2.38;1.42;;;9.60;99.90;;;;;;4263395;27;20500;-65
2024/03/06 09:32:51;;;;;;;1.00;0.75;;;9.50;99.90;;;;;;4242431;27;20062;-58
2024/03/06 09:34:54;;;;;;;3.38;1.63;;;9.60;99.90;;;;;;4261301;27;20042;-60
2024/03/06 09:36:56;;;;;;;1.58;0.85;;;9.60;99.90;;;;;;4251244;27;20432;-57
2024/03/06 09:38:58;;;;;;;1.48;1.30;;;9.70;99.90;;;;;;4250098;27;20063;-57
2024/03/06 09:41:00;;;;;;;2.55;1.60;;;9.60;99.90;;;;;;4250259;27;20063;-58
2024/03/06 09:43:03;;;;;;;2.63;1.35;;;9.80;99.90;;;;;;4250273;27;20045;-57
2024/03/06 09:45:07;;;;;;;1.80;0.80;;;9.90;99.90;;;;;;4250506;27;20051;-58
2024/03/06 09:47:14;;;;;;;1.65;0.88;;;9.90;99.90;;;;;;4258885;27;20129;-57
2024/03/06 09:49:17;;;;;;;0.80;0.80;;;9.90;99.90;;;;;;4261179;27;20755;-62
2024/03/06 09:51:20;;;;;;;2.22;0.95;;;10.00;99.90;;;;;;4264635;27;20133;-57
2024/03/06 09:53:23;;;;;;;0.77;0.65;;;10.00;99.90;;;;;;4240971;27;20052;-57
2024/03/06 09:55:26;;;;;;;2.95;1.38;;;10.00;99.90;;;;;;4261117;27;20038;-57
2024/03/06 09:57:29;;;;;;;2.70;1.48;;;10.00;99.90;;;;;;4260176;27;20305;-58
2024/03/06 09:59:32;;;;;;;2.90;1.38;;;9.90;99.90;;;;;;4264802;27;20065;-58
2024/03/06 10:01:40;;;;;;;1.35;1.00;;;10.00;99.90;;;;;;4262822;27;20038;-57
2024/03/06 10:03:42;;;;;;;3.08;1.55;;;10.00;99.90;;;;;;4261064;27;20040;-57
2024/03/06 10:05:44;;;;;;;2.63;1.58;;;10.00;99.70;;;;;;4261773;27;20055;-57
2024/03/06 10:07:46;;;;;;;4.03;1.27;;;10.10;99.90;;;;;;4261391;27;19919;-57
2024/03/06 10:09:49;;;;;;;1.65;1.10;;;10.20;99.60;;;;;;4266091;27;20062;-58
2024/03/06 10:11:56;;;;;;;1.30;1.10;;;10.10;99.90;;;;;;4259024;27;20038;-57
2024/03/06 10:14:00;;;;;;;2.55;1.48;;;10.20;99.90;;;;;;4265478;27;20081;-57
2024/03/06 10:16:03;;;;;;;0.95;0.80;;;10.20;99.90;;;;;;4242572;27;20054;-57
2024/03/06 10:18:15;;;;;;;2.03;1.40;;;10.30;99.90;;;;;;4262147;27;20066;-57
2024/03/06 10:20:25;;;;;;;3.47;1.00;;;10.30;99.80;;;;;;4251383;27;20039;-57
2024/03/06 10:22:28;;;;;;;2.58;1.25;;;10.40;99.90;;;;;;4263662;27;20039;-57
2024/03/06 10:24:30;;;;;;;4.95;1.60;;;10.50;99.90;;;;;;4259875;27;20046;-57
2024/03/06 10:26:32;;;;;;;0.98;0.98;;;10.50;99.70;;;;;;4261168;27;20043;-57
2024/03/06 10:28:34;;;;;;;2.58;1.30;;;10.50;99.70;;;;;;4263700;27;20482;-57
2024/03/06 10:30:42;;;;;;;3.53;0.90;;;10.60;99.30;;;;;;4249050;27;20094;-57
2024/03/06 10:32:49;;;;;;;1.27;0.57;;;10.60;98.80;;;;;;4259479;27;20061;-59
2024/03/06 10:34:53;;;;;;;5.68;1.20;;;10.60;98.90;;;;;;4256766;27;20035;-57
2024/03/06 10:36:56;;;;;;;1.05;0.50;;;10.70;98.90;;;;;;4249170;27;20653;-57
2024/03/06 10:39:01;;;;;;;0.93;0.80;;;10.70;98.50;;;;;;4261888;27;20038;-57
2024/03/06 10:41:13;;;;;;;1.50;1.02;;;10.70;99.10;;;;;;4263938;27;20046;-58
2024/03/06 10:43:16;;;;;;;3.10;0.75;;;10.50;99.50;;;;;;4259659;27;20130;-57
2024/03/06 10:45:22;;;;;;;2.03;1.17;;;10.70;99.40;;;;;;4241476;27;20073;-57
2024/03/06 10:47:26;;;;;;;1.50;1.40;;;10.60;99.00;;;;;;4259336;27;20043;-58
2024/03/06 10:49:30;;;;;;;3.08;0.90;;;10.70;99.10;;;;;;4263623;27;20118;-58
2024/03/06 10:51:34;;;;;;;1.63;1.03;;;10.70;98.80;;;;;;4253405;27;20043;-57
2024/03/06 10:53:38;;;;;;;1.50;1.27;;;10.70;99.00;;;;;;4262845;27;20447;-57